sensor_id;sensor_type;location;lat;lon;timestamp;temperature;humidity
7738;DHT22;29398;45.328;5.558;2023-03-04T00:00:21;7.50;86.20
7738;DHT22;29398;45.328;5.558;2023-03-04T00:01:23;7.50;86.20
7738;DHT22;29398;45.328;5.558;2023-03-04T00:02:24;7.50;86.10
7738;DHT22;29398;45.328;5.558;2023-03-04T00:03:26;7.40;86.10
7738;DHT22;29398;45.328;5.558;2023-03-04T00:04:27;7.50;86.40
7738;DHT22;29398;45.328;5.558;2023-03-04T00:05:29;7.40;86.50
7738;DHT22;29398;45.328;5.558;2023-03-04T00:06:31;7.50;86.80
7738;DHT22;29398;45.328;5.558;2023-03-04T00:07:33;7.40;86.90
7738;DHT22;29398;45.328;5.558;2023-03-04T00:08:34;7.40;87.00
7738;DHT22;29398;45.328;5.558;2023-03-04T00:09:37;7.40;87.10
7738;DHT22;29398;45.328;5.558;2023-03-04T00:10:38;7.40;86.90
7738;DHT22;29398;45.328;5.558;2023-03-04T00:11:42;7.40;86.90
7738;DHT22;29398;45.328;5.558;2023-03-04T00:12:43;7.50;87.10
7738;DHT22;29398;45.328;5.558;2023-03-04T00:13:45;7.50;87.30
7738;DHT22;29398;45.328;5.558;2023-03-04T00:14:46;7.40;86.90
7738;DHT22;29398;45.328;5.558;2023-03-04T00:15:49;7.40;86.90
7738;DHT22;29398;45.328;5.558;2023-03-04T00:16:50;7.40;87.10
7738;DHT22;29398;45.328;5.558;2023-03-04T00:17:52;7.40;87.20
7738;DHT22;29398;45.328;5.558;2023-03-04T00:18:53;7.40;87.30
7738;DHT22;29398;45.328;5.558;2023-03-04T00:19:55;7.40;87.40
7738;DHT22;29398;45.328;5.558;2023-03-04T00:20:56;7.40;87.10
7738;DHT22;29398;45.328;5.558;2023-03-04T00:21:59;7.40;87.00
7738;DHT22;29398;45.328;5.558;2023-03-04T00:23:00;7.40;87.00
7738;DHT22;29398;45.328;5.558;2023-03-04T00:24:02;7.40;87.10
7738;DHT22;29398;45.328;5.558;2023-03-04T00:25:04;7.40;87.10
7738;DHT22;29398;45.328;5.558;2023-03-04T00:26:06;7.40;87.40
7738;DHT22;29398;45.328;5.558;2023-03-04T00:27:10;7.40;87.30
7738;DHT22;29398;45.328;5.558;2023-03-04T00:28:12;7.40;87.50
7738;DHT22;29398;45.328;5.558;2023-03-04T00:29:13;7.40;87.30
7738;DHT22;29398;45.328;5.558;2023-03-04T00:30:16;7.40;87.20
7738;DHT22;29398;45.328;5.558;2023-03-04T00:31:17;7.40;87.60
7738;DHT22;29398;45.328;5.558;2023-03-04T00:32:20;7.40;87.60
7738;DHT22;29398;45.328;5.558;2023-03-04T00:33:21;7.40;87.60
7738;DHT22;29398;45.328;5.558;2023-03-04T00:34:23;7.40;87.40
7738;DHT22;29398;45.328;5.558;2023-03-04T00:35:24;7.40;87.10
7738;DHT22;29398;45.328;5.558;2023-03-04T00:36:28;7.30;87.00
7738;DHT22;29398;45.328;5.558;2023-03-04T00:37:29;7.30;87.20
7738;DHT22;29398;45.328;5.558;2023-03-04T00:38:32;7.30;87.50
7738;DHT22;29398;45.328;5.558;2023-03-04T00:39:33;7.30;87.50
7738;DHT22;29398;45.328;5.558;2023-03-04T00:40:35;7.30;87.70
7738;DHT22;29398;45.328;5.558;2023-03-04T00:41:38;7.30;87.60
7738;DHT22;29398;45.328;5.558;2023-03-04T00:42:43;7.40;87.90
7738;DHT22;29398;45.328;5.558;2023-03-04T00:43:44;7.30;87.80
7738;DHT22;29398;45.328;5.558;2023-03-04T00:44:47;7.40;88.00
7738;DHT22;29398;45.328;5.558;2023-03-04T00:45:49;7.40;88.00
7738;DHT22;29398;45.328;5.558;2023-03-04T00:46:51;7.30;88.10
7738;DHT22;29398;45.328;5.558;2023-03-04T00:47:52;7.40;88.20
7738;DHT22;29398;45.328;5.558;2023-03-04T00:48:55;7.40;88.20
7738;DHT22;29398;45.328;5.558;2023-03-04T00:49:56;7.40;88.10
7738;DHT22;29398;45.328;5.558;2023-03-04T00:50:58;7.40;88.00
7738;DHT22;29398;45.328;5.558;2023-03-04T00:51:59;7.40;87.90
7738;DHT22;29398;45.328;5.558;2023-03-04T00:53:01;7.30;87.90
7738;DHT22;29398;45.328;5.558;2023-03-04T00:54:03;7.40;88.20
7738;DHT22;29398;45.328;5.558;2023-03-04T00:55:06;7.40;88.10
7738;DHT22;29398;45.328;5.558;2023-03-04T00:56:08;7.30;88.10
7738;DHT22;29398;45.328;5.558;2023-03-04T00:57:10;7.40;88.30
7738;DHT22;29398;45.328;5.558;2023-03-04T00:58:13;7.30;88.20
7738;DHT22;29398;45.328;5.558;2023-03-04T00:59:15;7.40;88.30
7738;DHT22;29398;45.328;5.558;2023-03-04T01:00:17;7.30;88.20
7738;DHT22;29398;45.328;5.558;2023-03-04T01:01:19;7.30;88.00
7738;DHT22;29398;45.328;5.558;2023-03-04T01:02:20;7.30;88.20
7738;DHT22;29398;45.328;5.558;2023-03-04T01:03:22;7.30;88.10
7738;DHT22;29398;45.328;5.558;2023-03-04T01:04:26;7.30;88.10
7738;DHT22;29398;45.328;5.558;2023-03-04T01:05:28;7.30;88.10
7738;DHT22;29398;45.328;5.558;2023-03-04T01:06:29;7.30;88.20
7738;DHT22;29398;45.328;5.558;2023-03-04T01:07:32;7.30;88.20
7738;DHT22;29398;45.328;5.558;2023-03-04T01:08:33;7.30;88.20
7738;DHT22;29398;45.328;5.558;2023-03-04T01:09:35;7.40;88.30
7738;DHT22;29398;45.328;5.558;2023-03-04T01:10:36;7.30;88.30
7738;DHT22;29398;45.328;5.558;2023-03-04T01:11:38;7.30;88.10
7738;DHT22;29398;45.328;5.558;2023-03-04T01:12:39;7.30;87.70
7738;DHT22;29398;45.328;5.558;2023-03-04T01:13:43;7.30;87.70
7738;DHT22;29398;45.328;5.558;2023-03-04T01:14:44;7.30;87.70
7738;DHT22;29398;45.328;5.558;2023-03-04T01:15:47;7.30;87.80
7738;DHT22;29398;45.328;5.558;2023-03-04T01:16:48;7.30;87.80
7738;DHT22;29398;45.328;5.558;2023-03-04T01:17:50;7.30;87.80
7738;DHT22;29398;45.328;5.558;2023-03-04T01:18:52;7.30;87.90
7738;DHT22;29398;45.328;5.558;2023-03-04T01:19:54;7.30;87.90
7738;DHT22;29398;45.328;5.558;2023-03-04T01:20:55;7.30;87.90
7738;DHT22;29398;45.328;5.558;2023-03-04T01:21:58;7.30;88.00
7738;DHT22;29398;45.328;5.558;2023-03-04T01:22:59;7.30;87.80
7738;DHT22;29398;45.328;5.558;2023-03-04T01:24:01;7.30;87.70
7738;DHT22;29398;45.328;5.558;2023-03-04T01:25:02;7.30;87.40
7738;DHT22;29398;45.328;5.558;2023-03-04T01:26:06;7.20;87.40
7738;DHT22;29398;45.328;5.558;2023-03-04T01:27:07;7.30;87.70
7738;DHT22;29398;45.328;5.558;2023-03-04T01:28:09;7.20;87.80
7738;DHT22;29398;45.328;5.558;2023-03-04T01:29:12;7.30;87.70
7738;DHT22;29398;45.328;5.558;2023-03-04T01:30:14;7.30;87.90
7738;DHT22;29398;45.328;5.558;2023-03-04T01:31:15;7.20;87.80
7738;DHT22;29398;45.328;5.558;2023-03-04T01:32:18;7.30;88.00
7738;DHT22;29398;45.328;5.558;2023-03-04T01:33:19;7.30;88.00
7738;DHT22;29398;45.328;5.558;2023-03-04T01:34:21;7.30;88.10
7738;DHT22;29398;45.328;5.558;2023-03-04T01:35:23;7.30;87.90
7738;DHT22;29398;45.328;5.558;2023-03-04T01:36:25;7.30;88.00
7738;DHT22;29398;45.328;5.558;2023-03-04T01:37:26;7.30;88.00
7738;DHT22;29398;45.328;5.558;2023-03-04T01:38:28;7.20;87.60
7738;DHT22;29398;45.328;5.558;2023-03-04T01:39:29;7.20;87.60
7738;DHT22;29398;45.328;5.558;2023-03-04T01:40:31;7.20;87.70
7738;DHT22;29398;45.328;5.558;2023-03-04T01:41:33;7.20;87.90
7738;DHT22;29398;45.328;5.558;2023-03-04T01:42:35;7.20;87.90
7738;DHT22;29398;45.328;5.558;2023-03-04T01:43:36;7.20;87.90
7738;DHT22;29398;45.328;5.558;2023-03-04T01:44:40;7.20;88.00
7738;DHT22;29398;45.328;5.558;2023-03-04T01:45:41;7.30;87.90
7738;DHT22;29398;45.328;5.558;2023-03-04T01:46:47;7.30;87.90
7738;DHT22;29398;45.328;5.558;2023-03-04T01:47:50;7.30;87.80
7738;DHT22;29398;45.328;5.558;2023-03-04T01:48:53;7.30;86.90
7738;DHT22;29398;45.328;5.558;2023-03-04T01:49:55;7.20;87.10
7738;DHT22;29398;45.328;5.558;2023-03-04T01:50:58;7.10;87.20
7738;DHT22;29398;45.328;5.558;2023-03-04T01:52:02;7.20;87.60
7738;DHT22;29398;45.328;5.558;2023-03-04T01:53:05;7.10;87.70
7738;DHT22;29398;45.328;5.558;2023-03-04T01:54:07;7.20;88.10
7738;DHT22;29398;45.328;5.558;2023-03-04T01:55:15;7.20;88.30
7738;DHT22;29398;45.328;5.558;2023-03-04T01:56:23;7.20;88.10
7738;DHT22;29398;45.328;5.558;2023-03-04T01:57:26;7.20;88.00
7738;DHT22;29398;45.328;5.558;2023-03-04T01:58:29;7.20;88.00
7738;DHT22;29398;45.328;5.558;2023-03-04T01:59:31;7.20;88.00
7738;DHT22;29398;45.328;5.558;2023-03-04T02:00:34;7.20;88.30
7738;DHT22;29398;45.328;5.558;2023-03-04T02:01:37;7.20;87.70
7738;DHT22;29398;45.328;5.558;2023-03-04T02:02:39;7.20;87.40
7738;DHT22;29398;45.328;5.558;2023-03-04T02:03:41;7.20;87.80
7738;DHT22;29398;45.328;5.558;2023-03-04T02:04:43;7.20;88.50
7738;DHT22;29398;45.328;5.558;2023-03-04T02:05:46;7.20;88.00
7738;DHT22;29398;45.328;5.558;2023-03-04T02:06:50;7.20;87.80
7738;DHT22;29398;45.328;5.558;2023-03-04T02:07:52;7.20;87.60
7738;DHT22;29398;45.328;5.558;2023-03-04T02:08:55;7.20;87.60
7738;DHT22;29398;45.328;5.558;2023-03-04T02:09:57;7.20;87.60
7738;DHT22;29398;45.328;5.558;2023-03-04T02:10:59;7.20;87.80
7738;DHT22;29398;45.328;5.558;2023-03-04T02:12:01;7.20;87.30
7738;DHT22;29398;45.328;5.558;2023-03-04T02:13:03;7.30;88.00
7738;DHT22;29398;45.328;5.558;2023-03-04T02:14:05;7.30;88.10
7738;DHT22;29398;45.328;5.558;2023-03-04T02:15:08;7.30;88.10
7738;DHT22;29398;45.328;5.558;2023-03-04T02:16:10;7.30;88.10
7738;DHT22;29398;45.328;5.558;2023-03-04T02:17:12;7.30;88.00
7738;DHT22;29398;45.328;5.558;2023-03-04T02:18:15;7.20;87.90
7738;DHT22;29398;45.328;5.558;2023-03-04T02:19:24;7.30;87.90
7738;DHT22;29398;45.328;5.558;2023-03-04T02:20:37;7.30;88.10
7738;DHT22;29398;45.328;5.558;2023-03-04T02:21:43;7.30;88.10
7738;DHT22;29398;45.328;5.558;2023-03-04T02:22:53;7.30;88.10
7738;DHT22;29398;45.328;5.558;2023-03-04T02:24:05;7.30;88.20
7738;DHT22;29398;45.328;5.558;2023-03-04T02:25:13;7.30;88.40
7738;DHT22;29398;45.328;5.558;2023-03-04T02:26:19;7.30;88.00
7738;DHT22;29398;45.328;5.558;2023-03-04T02:27:23;7.30;88.20
7738;DHT22;29398;45.328;5.558;2023-03-04T02:28:26;7.30;88.30
7738;DHT22;29398;45.328;5.558;2023-03-04T02:29:27;7.30;88.40
7738;DHT22;29398;45.328;5.558;2023-03-04T02:30:30;7.30;88.60
7738;DHT22;29398;45.328;5.558;2023-03-04T02:31:33;7.30;88.80
7738;DHT22;29398;45.328;5.558;2023-03-04T02:32:35;7.30;88.60
7738;DHT22;29398;45.328;5.558;2023-03-04T02:33:36;7.20;88.70
7738;DHT22;29398;45.328;5.558;2023-03-04T02:34:43;7.30;88.60
7738;DHT22;29398;45.328;5.558;2023-03-04T02:35:45;7.20;88.70
7738;DHT22;29398;45.328;5.558;2023-03-04T02:36:50;7.30;88.80
7738;DHT22;29398;45.328;5.558;2023-03-04T02:37:51;7.30;88.50
7738;DHT22;29398;45.328;5.558;2023-03-04T02:38:55;7.20;88.70
7738;DHT22;29398;45.328;5.558;2023-03-04T02:39:56;7.20;89.00
7738;DHT22;29398;45.328;5.558;2023-03-04T02:40:59;7.20;89.00
7738;DHT22;29398;45.328;5.558;2023-03-04T02:42:03;7.20;88.90
7738;DHT22;29398;45.328;5.558;2023-03-04T02:43:09;7.10;88.90
7738;DHT22;29398;45.328;5.558;2023-03-04T02:44:16;7.20;89.00
7738;DHT22;29398;45.328;5.558;2023-03-04T02:45:34;7.10;88.90
7738;DHT22;29398;45.328;5.558;2023-03-04T02:46:35;7.20;89.00
7738;DHT22;29398;45.328;5.558;2023-03-04T02:47:37;7.10;88.40
7738;DHT22;29398;45.328;5.558;2023-03-04T02:48:39;7.10;88.50
7738;DHT22;29398;45.328;5.558;2023-03-04T02:49:41;7.10;88.80
7738;DHT22;29398;45.328;5.558;2023-03-04T02:50:45;7.10;88.70
7738;DHT22;29398;45.328;5.558;2023-03-04T02:51:50;7.10;88.50
7738;DHT22;29398;45.328;5.558;2023-03-04T02:52:52;7.10;88.70
7738;DHT22;29398;45.328;5.558;2023-03-04T02:53:54;7.20;88.90
7738;DHT22;29398;45.328;5.558;2023-03-04T02:54:56;7.20;89.10
7738;DHT22;29398;45.328;5.558;2023-03-04T02:55:59;7.10;88.50
7738;DHT22;29398;45.328;5.558;2023-03-04T02:57:07;7.10;88.80
7738;DHT22;29398;45.328;5.558;2023-03-04T02:58:12;7.10;89.00
7738;DHT22;29398;45.328;5.558;2023-03-04T02:59:13;7.10;89.20
7738;DHT22;29398;45.328;5.558;2023-03-04T03:00:16;7.10;89.20
7738;DHT22;29398;45.328;5.558;2023-03-04T03:01:17;7.10;89.10
7738;DHT22;29398;45.328;5.558;2023-03-04T03:02:19;7.20;88.80
7738;DHT22;29398;45.328;5.558;2023-03-04T03:03:21;7.10;88.60
7738;DHT22;29398;45.328;5.558;2023-03-04T03:04:23;7.10;87.50
7738;DHT22;29398;45.328;5.558;2023-03-04T03:05:29;7.10;87.00
7738;DHT22;29398;45.328;5.558;2023-03-04T03:06:32;7.10;87.10
7738;DHT22;29398;45.328;5.558;2023-03-04T03:07:33;7.10;87.90
7738;DHT22;29398;45.328;5.558;2023-03-04T03:08:36;7.10;88.20
7738;DHT22;29398;45.328;5.558;2023-03-04T03:09:37;7.10;88.30
7738;DHT22;29398;45.328;5.558;2023-03-04T03:10:39;7.10;88.40
7738;DHT22;29398;45.328;5.558;2023-03-04T03:11:41;7.10;88.30
7738;DHT22;29398;45.328;5.558;2023-03-04T03:12:45;7.10;88.50
7738;DHT22;29398;45.328;5.558;2023-03-04T03:13:46;7.10;88.10
7738;DHT22;29398;45.328;5.558;2023-03-04T03:14:48;7.10;87.20
7738;DHT22;29398;45.328;5.558;2023-03-04T03:15:52;7.10;87.70
7738;DHT22;29398;45.328;5.558;2023-03-04T03:16:57;7.10;88.00
7738;DHT22;29398;45.328;5.558;2023-03-04T03:17:59;7.10;87.90
7738;DHT22;29398;45.328;5.558;2023-03-04T03:19:01;7.10;87.70
7738;DHT22;29398;45.328;5.558;2023-03-04T03:20:03;7.10;87.30
7738;DHT22;29398;45.328;5.558;2023-03-04T03:21:05;7.10;86.90
7738;DHT22;29398;45.328;5.558;2023-03-04T03:22:07;7.20;86.40
7738;DHT22;29398;45.328;5.558;2023-03-04T03:23:09;7.20;86.00
7738;DHT22;29398;45.328;5.558;2023-03-04T03:24:10;7.20;85.50
7738;DHT22;29398;45.328;5.558;2023-03-04T03:25:13;7.20;85.90
7738;DHT22;29398;45.328;5.558;2023-03-04T03:26:15;7.20;86.60
7738;DHT22;29398;45.328;5.558;2023-03-04T03:27:17;7.20;86.80
7738;DHT22;29398;45.328;5.558;2023-03-04T03:28:19;7.20;86.70
7738;DHT22;29398;45.328;5.558;2023-03-04T03:29:21;7.20;86.70
7738;DHT22;29398;45.328;5.558;2023-03-04T03:30:22;7.20;86.50
7738;DHT22;29398;45.328;5.558;2023-03-04T03:31:24;7.20;86.60
7738;DHT22;29398;45.328;5.558;2023-03-04T03:32:26;7.20;86.50
7738;DHT22;29398;45.328;5.558;2023-03-04T03:33:28;7.20;86.20
7738;DHT22;29398;45.328;5.558;2023-03-04T03:34:29;7.20;86.70
7738;DHT22;29398;45.328;5.558;2023-03-04T03:35:31;7.20;86.70
7738;DHT22;29398;45.328;5.558;2023-03-04T03:36:32;7.20;86.70
7738;DHT22;29398;45.328;5.558;2023-03-04T03:37:34;7.10;86.20
7738;DHT22;29398;45.328;5.558;2023-03-04T03:38:36;7.10;85.80
7738;DHT22;29398;45.328;5.558;2023-03-04T03:39:38;7.10;86.30
7738;DHT22;29398;45.328;5.558;2023-03-04T03:40:39;7.10;86.70
7738;DHT22;29398;45.328;5.558;2023-03-04T03:41:41;7.20;86.80
7738;DHT22;29398;45.328;5.558;2023-03-04T03:42:42;7.20;86.80
7738;DHT22;29398;45.328;5.558;2023-03-04T03:43:45;7.20;86.90
7738;DHT22;29398;45.328;5.558;2023-03-04T03:44:47;7.20;86.90
7738;DHT22;29398;45.328;5.558;2023-03-04T03:45:50;7.20;87.00
7738;DHT22;29398;45.328;5.558;2023-03-04T03:46:51;7.20;87.00
7738;DHT22;29398;45.328;5.558;2023-03-04T03:47:53;7.20;87.00
7738;DHT22;29398;45.328;5.558;2023-03-04T03:48:54;7.20;87.00
7738;DHT22;29398;45.328;5.558;2023-03-04T03:49:56;7.20;87.40
7738;DHT22;29398;45.328;5.558;2023-03-04T03:50:58;7.20;87.10
7738;DHT22;29398;45.328;5.558;2023-03-04T03:52:00;7.20;87.20
7738;DHT22;29398;45.328;5.558;2023-03-04T03:53:01;7.30;87.50
7738;DHT22;29398;45.328;5.558;2023-03-04T03:54:03;7.20;87.40
7738;DHT22;29398;45.328;5.558;2023-03-04T03:55:05;7.20;87.50
7738;DHT22;29398;45.328;5.558;2023-03-04T03:56:07;7.30;87.50
7738;DHT22;29398;45.328;5.558;2023-03-04T03:57:08;7.30;87.50
7738;DHT22;29398;45.328;5.558;2023-03-04T03:58:10;7.30;87.50
7738;DHT22;29398;45.328;5.558;2023-03-04T03:59:13;7.30;87.80
7738;DHT22;29398;45.328;5.558;2023-03-04T04:00:16;7.30;87.60
7738;DHT22;29398;45.328;5.558;2023-03-04T04:01:17;7.30;87.60
7738;DHT22;29398;45.328;5.558;2023-03-04T04:02:19;7.30;87.50
7738;DHT22;29398;45.328;5.558;2023-03-04T04:03:20;7.30;87.60
7738;DHT22;29398;45.328;5.558;2023-03-04T04:04:22;7.30;87.50
7738;DHT22;29398;45.328;5.558;2023-03-04T04:05:24;7.30;87.50
7738;DHT22;29398;45.328;5.558;2023-03-04T04:06:26;7.30;87.60
7738;DHT22;29398;45.328;5.558;2023-03-04T04:07:27;7.30;87.80
7738;DHT22;29398;45.328;5.558;2023-03-04T04:08:29;7.30;87.90
7738;DHT22;29398;45.328;5.558;2023-03-04T04:09:30;7.30;87.80
7738;DHT22;29398;45.328;5.558;2023-03-04T04:10:32;7.30;87.80
7738;DHT22;29398;45.328;5.558;2023-03-04T04:11:33;7.30;87.70
7738;DHT22;29398;45.328;5.558;2023-03-04T04:12:35;7.30;87.70
7738;DHT22;29398;45.328;5.558;2023-03-04T04:13:36;7.30;88.50
7738;DHT22;29398;45.328;5.558;2023-03-04T04:14:40;7.30;88.10
7738;DHT22;29398;45.328;5.558;2023-03-04T04:15:41;7.30;88.00
7738;DHT22;29398;45.328;5.558;2023-03-04T04:16:43;7.30;88.00
7738;DHT22;29398;45.328;5.558;2023-03-04T04:17:44;7.30;87.60
7738;DHT22;29398;45.328;5.558;2023-03-04T04:18:46;7.30;88.10
7738;DHT22;29398;45.328;5.558;2023-03-04T04:19:48;7.30;87.90
7738;DHT22;29398;45.328;5.558;2023-03-04T04:20:50;7.20;87.90
7738;DHT22;29398;45.328;5.558;2023-03-04T04:21:52;7.30;88.10
7738;DHT22;29398;45.328;5.558;2023-03-04T04:22:54;7.30;88.20
7738;DHT22;29398;45.328;5.558;2023-03-04T04:23:55;7.30;88.60
7738;DHT22;29398;45.328;5.558;2023-03-04T04:24:57;7.30;88.80
7738;DHT22;29398;45.328;5.558;2023-03-04T04:25:58;7.20;88.80
7738;DHT22;29398;45.328;5.558;2023-03-04T04:27:00;7.20;88.80
7738;DHT22;29398;45.328;5.558;2023-03-04T04:28:02;7.20;88.40
7738;DHT22;29398;45.328;5.558;2023-03-04T04:29:04;7.20;88.40
7738;DHT22;29398;45.328;5.558;2023-03-04T04:30:08;7.20;88.10
7738;DHT22;29398;45.328;5.558;2023-03-04T04:31:10;7.20;88.50
7738;DHT22;29398;45.328;5.558;2023-03-04T04:32:11;7.20;88.50
7738;DHT22;29398;45.328;5.558;2023-03-04T04:33:13;7.20;88.60
7738;DHT22;29398;45.328;5.558;2023-03-04T04:34:14;7.20;88.70
7738;DHT22;29398;45.328;5.558;2023-03-04T04:35:17;7.20;88.60
7738;DHT22;29398;45.328;5.558;2023-03-04T04:36:18;7.10;87.60
7738;DHT22;29398;45.328;5.558;2023-03-04T04:37:20;7.10;87.50
7738;DHT22;29398;45.328;5.558;2023-03-04T04:38:22;7.00;87.80
7738;DHT22;29398;45.328;5.558;2023-03-04T04:39:24;7.00;88.20
7738;DHT22;29398;45.328;5.558;2023-03-04T04:40:27;7.00;88.60
7738;DHT22;29398;45.328;5.558;2023-03-04T04:41:37;7.00;88.70
7738;DHT22;29398;45.328;5.558;2023-03-04T04:42:40;7.00;88.70
7738;DHT22;29398;45.328;5.558;2023-03-04T04:43:41;7.00;89.00
7738;DHT22;29398;45.328;5.558;2023-03-04T04:44:43;7.00;89.10
7738;DHT22;29398;45.328;5.558;2023-03-04T04:45:45;7.00;89.20
7738;DHT22;29398;45.328;5.558;2023-03-04T04:46:47;7.00;89.30
7738;DHT22;29398;45.328;5.558;2023-03-04T04:47:48;7.10;89.40
7738;DHT22;29398;45.328;5.558;2023-03-04T04:48:51;7.10;89.20
7738;DHT22;29398;45.328;5.558;2023-03-04T04:49:52;7.10;89.10
7738;DHT22;29398;45.328;5.558;2023-03-04T04:50:54;7.10;89.20
7738;DHT22;29398;45.328;5.558;2023-03-04T04:51:55;7.10;89.20
7738;DHT22;29398;45.328;5.558;2023-03-04T04:52:58;7.10;89.20
7738;DHT22;29398;45.328;5.558;2023-03-04T04:53:59;7.20;89.50
7738;DHT22;29398;45.328;5.558;2023-03-04T04:55:02;7.20;89.60
7738;DHT22;29398;45.328;5.558;2023-03-04T04:56:11;7.20;89.50
7738;DHT22;29398;45.328;5.558;2023-03-04T04:57:14;7.20;89.30
7738;DHT22;29398;45.328;5.558;2023-03-04T04:58:15;7.20;89.60
7738;DHT22;29398;45.328;5.558;2023-03-04T04:59:17;7.20;89.50
7738;DHT22;29398;45.328;5.558;2023-03-04T05:00:18;7.20;89.60
7738;DHT22;29398;45.328;5.558;2023-03-04T05:01:22;7.20;89.60
7738;DHT22;29398;45.328;5.558;2023-03-04T05:02:23;7.20;89.70
7738;DHT22;29398;45.328;5.558;2023-03-04T05:03:25;7.20;89.20
7738;DHT22;29398;45.328;5.558;2023-03-04T05:04:26;7.20;89.30
7738;DHT22;29398;45.328;5.558;2023-03-04T05:05:29;7.20;89.80
7738;DHT22;29398;45.328;5.558;2023-03-04T05:06:30;7.20;89.50
7738;DHT22;29398;45.328;5.558;2023-03-04T05:07:33;7.20;89.70
7738;DHT22;29398;45.328;5.558;2023-03-04T05:08:34;7.20;89.50
7738;DHT22;29398;45.328;5.558;2023-03-04T05:09:37;7.20;89.10
7738;DHT22;29398;45.328;5.558;2023-03-04T05:10:38;7.20;89.00
7738;DHT22;29398;45.328;5.558;2023-03-04T05:11:40;7.10;88.50
7738;DHT22;29398;45.328;5.558;2023-03-04T05:12:43;7.20;88.60
7738;DHT22;29398;45.328;5.558;2023-03-04T05:13:44;7.10;88.30
7738;DHT22;29398;45.328;5.558;2023-03-04T05:14:47;7.10;88.60
7738;DHT22;29398;45.328;5.558;2023-03-04T05:15:50;7.20;88.90
7738;DHT22;29398;45.328;5.558;2023-03-04T05:16:54;7.20;88.60
7738;DHT22;29398;45.328;5.558;2023-03-04T05:17:55;7.10;87.70
7738;DHT22;29398;45.328;5.558;2023-03-04T05:18:57;7.10;88.50
7738;DHT22;29398;45.328;5.558;2023-03-04T05:19:58;7.10;88.80
7738;DHT22;29398;45.328;5.558;2023-03-04T05:21:01;7.10;88.80
7738;DHT22;29398;45.328;5.558;2023-03-04T05:22:03;7.20;89.00
7738;DHT22;29398;45.328;5.558;2023-03-04T05:23:05;7.20;89.00
7738;DHT22;29398;45.328;5.558;2023-03-04T05:24:06;7.20;88.20
7738;DHT22;29398;45.328;5.558;2023-03-04T05:25:09;7.20;88.20
7738;DHT22;29398;45.328;5.558;2023-03-04T05:26:12;7.20;88.60
7738;DHT22;29398;45.328;5.558;2023-03-04T05:27:15;7.20;88.90
7738;DHT22;29398;45.328;5.558;2023-03-04T05:28:16;7.20;88.90
7738;DHT22;29398;45.328;5.558;2023-03-04T05:29:19;7.10;88.70
7738;DHT22;29398;45.328;5.558;2023-03-04T05:30:20;7.20;88.20
7738;DHT22;29398;45.328;5.558;2023-03-04T05:31:22;7.20;88.60
7738;DHT22;29398;45.328;5.558;2023-03-04T05:32:25;7.20;88.90
7738;DHT22;29398;45.328;5.558;2023-03-04T05:33:27;7.20;88.00
7738;DHT22;29398;45.328;5.558;2023-03-04T05:34:28;7.20;87.50
7738;DHT22;29398;45.328;5.558;2023-03-04T05:35:30;7.20;88.00
7738;DHT22;29398;45.328;5.558;2023-03-04T05:36:31;7.20;88.20
7738;DHT22;29398;45.328;5.558;2023-03-04T05:37:33;7.20;88.40
7738;DHT22;29398;45.328;5.558;2023-03-04T05:38:34;7.20;88.30
7738;DHT22;29398;45.328;5.558;2023-03-04T05:39:37;7.20;86.70
7738;DHT22;29398;45.328;5.558;2023-03-04T05:40:38;7.20;87.10
7738;DHT22;29398;45.328;5.558;2023-03-04T05:41:40;7.20;87.60
7738;DHT22;29398;45.328;5.558;2023-03-04T05:42:43;7.20;87.50
7738;DHT22;29398;45.328;5.558;2023-03-04T05:43:45;7.10;86.50
7738;DHT22;29398;45.328;5.558;2023-03-04T05:44:47;7.10;86.20
7738;DHT22;29398;45.328;5.558;2023-03-04T05:45:48;7.10;86.30
7738;DHT22;29398;45.328;5.558;2023-03-04T05:46:50;7.10;85.90
7738;DHT22;29398;45.328;5.558;2023-03-04T05:47:53;7.10;86.10
7738;DHT22;29398;45.328;5.558;2023-03-04T05:48:55;7.10;86.00
7738;DHT22;29398;45.328;5.558;2023-03-04T05:49:56;7.10;85.40
7738;DHT22;29398;45.328;5.558;2023-03-04T05:51:00;7.10;85.60
7738;DHT22;29398;45.328;5.558;2023-03-04T05:52:01;7.10;85.70
7738;DHT22;29398;45.328;5.558;2023-03-04T05:53:03;7.10;86.10
7738;DHT22;29398;45.328;5.558;2023-03-04T05:54:04;7.00;86.00
7738;DHT22;29398;45.328;5.558;2023-03-04T05:55:07;7.00;86.30
7738;DHT22;29398;45.328;5.558;2023-03-04T05:56:09;7.10;86.60
7738;DHT22;29398;45.328;5.558;2023-03-04T05:57:12;7.10;86.40
7738;DHT22;29398;45.328;5.558;2023-03-04T05:58:13;7.10;85.40
7738;DHT22;29398;45.328;5.558;2023-03-04T05:59:15;7.10;85.50
7738;DHT22;29398;45.328;5.558;2023-03-04T06:00:20;7.10;85.70
7738;DHT22;29398;45.328;5.558;2023-03-04T06:01:22;7.10;86.40
7738;DHT22;29398;45.328;5.558;2023-03-04T06:02:23;7.10;86.30
7738;DHT22;29398;45.328;5.558;2023-03-04T06:03:27;7.10;86.30
7738;DHT22;29398;45.328;5.558;2023-03-04T06:04:28;7.10;86.60
7738;DHT22;29398;45.328;5.558;2023-03-04T06:05:30;7.10;86.90
7738;DHT22;29398;45.328;5.558;2023-03-04T06:06:31;7.20;87.00
7738;DHT22;29398;45.328;5.558;2023-03-04T06:07:33;7.20;87.00
7738;DHT22;29398;45.328;5.558;2023-03-04T06:08:34;7.20;86.40
7738;DHT22;29398;45.328;5.558;2023-03-04T06:09:36;7.20;86.70
7738;DHT22;29398;45.328;5.558;2023-03-04T06:10:39;7.20;86.30
7738;DHT22;29398;45.328;5.558;2023-03-04T06:11:41;7.20;85.90
7738;DHT22;29398;45.328;5.558;2023-03-04T06:12:42;7.20;85.90
7738;DHT22;29398;45.328;5.558;2023-03-04T06:13:45;7.20;86.40
7738;DHT22;29398;45.328;5.558;2023-03-04T06:14:46;7.20;85.70
7738;DHT22;29398;45.328;5.558;2023-03-04T06:15:53;7.20;85.80
7738;DHT22;29398;45.328;5.558;2023-03-04T06:16:54;7.20;86.10
7738;DHT22;29398;45.328;5.558;2023-03-04T06:17:56;7.20;86.00
7738;DHT22;29398;45.328;5.558;2023-03-04T06:18:58;7.20;85.80
7738;DHT22;29398;45.328;5.558;2023-03-04T06:20:00;7.20;85.70
7738;DHT22;29398;45.328;5.558;2023-03-04T06:21:02;7.20;86.00
7738;DHT22;29398;45.328;5.558;2023-03-04T06:22:04;7.20;85.90
7738;DHT22;29398;45.328;5.558;2023-03-04T06:23:05;7.20;85.70
7738;DHT22;29398;45.328;5.558;2023-03-04T06:24:08;7.20;86.00
7738;DHT22;29398;45.328;5.558;2023-03-04T06:25:09;7.20;86.00
7738;DHT22;29398;45.328;5.558;2023-03-04T06:26:11;7.20;85.40
7738;DHT22;29398;45.328;5.558;2023-03-04T06:27:15;7.20;85.60
7738;DHT22;29398;45.328;5.558;2023-03-04T06:28:17;7.20;85.90
7738;DHT22;29398;45.328;5.558;2023-03-04T06:29:18;7.20;85.70
7738;DHT22;29398;45.328;5.558;2023-03-04T06:30:20;7.20;85.10
7738;DHT22;29398;45.328;5.558;2023-03-04T06:31:22;7.20;85.70
7738;DHT22;29398;45.328;5.558;2023-03-04T06:32:24;7.20;85.70
7738;DHT22;29398;45.328;5.558;2023-03-04T06:33:25;7.20;86.30
7738;DHT22;29398;45.328;5.558;2023-03-04T06:34:29;7.20;85.90
7738;DHT22;29398;45.328;5.558;2023-03-04T06:35:30;7.20;86.10
7738;DHT22;29398;45.328;5.558;2023-03-04T06:36:32;7.20;86.20
7738;DHT22;29398;45.328;5.558;2023-03-04T06:37:33;7.20;86.20
7738;DHT22;29398;45.328;5.558;2023-03-04T06:38:35;7.20;85.80
7738;DHT22;29398;45.328;5.558;2023-03-04T06:39:36;7.20;85.70
7738;DHT22;29398;45.328;5.558;2023-03-04T06:40:38;7.20;85.90
7738;DHT22;29398;45.328;5.558;2023-03-04T06:41:40;7.30;86.20
7738;DHT22;29398;45.328;5.558;2023-03-04T06:42:42;7.30;86.90
7738;DHT22;29398;45.328;5.558;2023-03-04T06:43:44;7.20;85.90
7738;DHT22;29398;45.328;5.558;2023-03-04T06:44:47;7.30;86.10
7738;DHT22;29398;45.328;5.558;2023-03-04T06:45:53;7.30;86.00
7738;DHT22;29398;45.328;5.558;2023-03-04T06:46:54;7.10;86.00